AirNav   Pilot Hours Calculator
 
 1605 users online  

3IA6 Ottumwa Hospital Heliport
Ottumwa, Iowa, USA

GOING TO OTTUMWA?


FAA INFORMATION EFFECTIVE 20 MAY 2021

Location

FAA Identifier: 3IA6
Lat/Long: 41-01-44.3300N 092-23-28.9500W
41-01.738833N 092-23.482500W
41.0289806,-92.3913750
(estimated)
Elevation: 845 ft. / 258 m (estimated)
Variation: 03E (1985)
Time zone: UTC -5 (UTC -6 during Standard Time)
Zip code: 52501

Heliport Operations

Heliport use: Private use, MEDICAL.
Activation date: 10/1984
Control tower: no
ARTCC: CHICAGO CENTER
FSS: FORT DODGE FLIGHT SERVICE STATION
Attendance: CONTINUOUS
Wind indicator: lighted
Segmented circle: no
Beacon: BLUE ROTG BCN AVBL ON REQUEST CALL 515-682-7511 OR CTC 155.340/155.205.

Heliport Communications

WX ASOS at OTM (5 nm NW): 124.175 (641-684-9164)
WX AWOS-3 at OOA (13 nm N): 118.625 (641-933-4312)
WX AWOS-3 at FFL (19 nm E): 132.025 (641-472-4548)

Nearby radio navigation aids

VOR radial/distance  VOR name  Freq  Var
OTMr264/3.0OTTUMWA VOR/DME111.6006E

 
NDB name  Hdg/Dist  Freq  Var  ID
BLOOMFIELD004/17.126902EBEX -... . -..-
PELLA130/33.625702EPEA .--. . .-

Heliport Services

Runway Information

Helipad H1

Dimensions: 30 x 30 ft. / 9 x 9 m
Surface: concrete, in good condition
Latitude: 41-01.738833N
Longitude: 092-23.482500W
Elevation: 845.0 ft.
Traffic pattern: leftleft
Obstructions: 25 ft. tree, 75 ft. from runway

Heliport Ownership and Management from official FAA records

Ownership: Privately-owned
Owner: OTTUMWA REG'L HEALTH CENTER
1001 E PENNSYLVANIA AVE., ATTN: PHILL NOEL,
OTTUMWA, IA 52501
Phone 641-682-7511
Manager: THOMAS PARSONS, PLANT MGR
1001 E PENNSYLVANIA AVE.
OTTUMWA, IA 52501
Phone 641-684-2424

Additional Remarks

FOR CD CTC CHICAGO ARTCC AT 630-906-8921.

Instrument Procedures

There are no published instrument procedures at 3IA6.

Some nearby airports with instrument procedures:

KOTM - Ottumwa Regional Airport (5 nm NW)
KOOA - Oskaloosa Municipal Airport (13 nm N)
4C8 - Albia Municipal Airport (17 nm W)
4K6 - Bloomfield Municipal Airport (18 nm S)
KFFL - Fairfield Municipal Airport (19 nm E)
 
Loc | Ops | Rwys | IFR | FBO | Links
Com | Nav | Svcs | Stats | Notes
Area around 3IA6 (Ottumwa Hospital Heliport)
 
Road maps at: MapQuest Bing Google
 
Aerial photo
No photo
 
Sectional chart

 
Airport distance calculator
Flying to Ottumwa Hospital Heliport? Find the distance to fly.

From to 3IA6

Sunrise and sunset
Times for 14-Jun-2021
 Local
(UTC-5)
 Zulu
(UTC)
Morning civil twilight05:0410:04
Sunrise05:3810:38
Sunset20:4201:42
Evening civil twilight21:1602:16

Current date and time
Zulu (UTC)  14-Jun-2021 17:16:45
Local (UTC-5)  14-Jun-2021 12:16:45
 
METAR
KOTM 
5nm NW 
141653Z AUTO 05008KT 10SM CLR 27/12 A3005 RMK AO2 SLP169 T02720117
KOOA 
13nm N 
141655Z AUTO 07008KT 10SM CLR 28/10 A3006 RMK AO2 T02790097
KFFL 
19nm E 
141655Z AUTO 04008KT 10SM CLR 26/12 A3005 RMK A01
TAF
KOTM 
5nm NW 
141131Z 1412/1512 34007KT P6SM FEW250 FM150100 VRB03KT P6SM FEW250
NOTAMs
Click for the latest NOTAMs
NOTAMs are issued by the DoD/FAA and will open in a separate window not controlled by AirNav.

 

 
 

Would you like to see your business listed on this page?

 If your business provides an interesting product or service to pilots, flight crews, aircraft, or users of the Ottumwa Hospital Heliport, you should consider listing it here.  To start the listing process, click on the button below
 
Add a business
 

Other Pages about Ottumwa Hospital Heliport

Update a link
 
Copyright © AirNav, LLC. All rights reserved. Privacy Policy  Contact